createdAt,value
2022-11-04T00:01:45.127Z,13.55
2022-11-04T00:05:07.416Z,14.38
2022-11-04T00:08:29.432Z,13.15
2022-11-04T00:12:10.619Z,12.30
2022-11-04T00:15:56.005Z,10.98
2022-11-04T00:19:18.628Z,11.57
2022-11-04T00:23:00.965Z,11.73
2022-11-04T00:26:41.663Z,9.68
2022-11-04T00:33:27.620Z,9.10
2022-11-04T00:36:49.583Z,8.80
2022-11-04T00:40:15.006Z,8.38
2022-11-04T00:43:36.979Z,8.63
2022-11-04T00:46:58.957Z,8.25
2022-11-04T00:50:20.943Z,7.47
2022-11-04T00:53:43.226Z,7.53
2022-11-04T00:57:05.290Z,7.55
2022-11-04T01:00:27.756Z,7.30
2022-11-04T01:03:52.705Z,6.88
2022-11-04T01:07:14.742Z,8.40
2022-11-04T01:10:44.597Z,8.00
2022-11-04T01:14:06.596Z,8.63
2022-11-04T01:17:28.681Z,6.95
2022-11-04T01:20:50.730Z,6.68
2022-11-04T01:24:12.723Z,6.20
2022-11-04T01:27:34.685Z,6.05
2022-11-04T01:30:56.766Z,6.03
2022-11-04T01:34:18.968Z,6.50
2022-11-04T01:37:41.157Z,6.57
2022-11-04T01:41:05.078Z,6.15
2022-11-04T01:44:42.136Z,7.97
2022-11-04T01:48:09.991Z,8.63
2022-11-04T01:51:34.847Z,10.15
2022-11-04T01:55:01.841Z,10.05
2022-11-04T01:58:26.979Z,9.73
2022-11-04T02:01:49.120Z,11.05
2022-11-04T02:05:11.323Z,11.15
2022-11-04T02:08:34.376Z,13.27
2022-11-04T02:12:15.445Z,12.35
2022-11-04T02:15:45.758Z,13.30
2022-11-04T02:23:44.928Z,12.70
2022-11-04T02:27:21.771Z,12.40
2022-11-04T02:31:01.954Z,12.68
2022-11-04T02:34:50.694Z,12.60
2022-11-04T02:38:21.969Z,14.90
2022-11-04T02:41:55.705Z,14.02
2022-11-04T02:45:33.498Z,13.35
2022-11-04T02:49:23.652Z,13.02
2022-11-04T02:52:58.779Z,12.70
2022-11-04T02:56:23.284Z,14.50
2022-11-04T02:59:50.708Z,12.98
2022-11-04T03:03:17.326Z,13.55
2022-11-04T03:06:41.587Z,12.57
2022-11-04T03:10:16.315Z,12.90
2022-11-04T03:13:50.599Z,12.05
2022-11-04T03:17:31.847Z,12.75
2022-11-04T03:20:58.380Z,13.02
2022-11-04T03:24:20.609Z,12.35
2022-11-04T03:28:09.969Z,12.20
2022-11-04T03:31:45.229Z,11.52
2022-11-04T03:35:08.663Z,12.52
2022-11-04T03:38:30.811Z,12.45
2022-11-04T03:42:20.237Z,13.90
2022-11-04T03:45:43.770Z,12.18
2022-11-04T03:49:06.541Z,12.73
2022-11-04T03:52:28.718Z,12.70
2022-11-04T03:56:09.153Z,11.80
2022-11-04T04:00:10.638Z,12.88
2022-11-04T04:03:39.120Z,13.90
2022-11-04T04:07:29.651Z,13.30
2022-11-04T04:11:03.886Z,14.40
2022-11-04T04:14:42.169Z,14.23
2022-11-04T04:18:08.325Z,13.43
2022-11-04T04:21:41.585Z,13.52
2022-11-04T04:25:26.173Z,14.65
2022-11-04T04:28:49.482Z,14.05
2022-11-04T04:32:13.277Z,14.52
2022-11-04T04:35:43.514Z,13.52
2022-11-04T04:46:43.884Z,14.80
2022-11-04T04:50:07.461Z,14.57
2022-11-04T04:53:29.512Z,13.27
2022-11-04T04:56:51.571Z,14.70
2022-11-04T05:00:16.032Z,14.80
2022-11-04T05:03:42.432Z,16.80
2022-11-04T05:07:08.192Z,15.45
2022-11-04T05:10:30.245Z,14.52
2022-11-04T05:13:52.370Z,15.05
2022-11-04T05:17:15.131Z,14.95
2022-11-04T05:20:39.161Z,15.65
2022-11-04T05:24:01.184Z,15.38
2022-11-04T05:27:23.173Z,14.65
2022-11-04T05:30:45.234Z,15.38
2022-11-04T05:34:07.385Z,15.15
2022-11-04T05:37:29.353Z,15.18
2022-11-04T05:40:51.633Z,14.68
2022-11-04T05:44:13.733Z,14.75
2022-11-04T05:47:35.818Z,14.07
2022-11-04T05:50:57.935Z,16.38
2022-11-04T05:54:19.996Z,16.42
2022-11-04T05:57:41.992Z,16.38
2022-11-04T06:01:32.606Z,16.42
2022-11-04T06:04:54.626Z,17.30
2022-11-04T06:08:16.734Z,17.02
2022-11-04T06:11:39.527Z,18.45
2022-11-04T06:15:01.829Z,17.52
2022-11-04T06:18:24.322Z,20.95
2022-11-04T06:21:46.430Z,18.67
2022-11-04T06:25:09.881Z,19.52
2022-11-04T06:28:32.942Z,18.42
2022-11-04T06:31:58.107Z,16.98
2022-11-04T06:35:22.390Z,20.40
2022-11-04T06:38:45.785Z,16.98
2022-11-04T06:42:12.227Z,11.45
2022-11-04T06:45:41.704Z,7.57
2022-11-04T06:49:06.154Z,7.40
2022-11-04T06:52:28.152Z,6.93
2022-11-04T06:55:51.551Z,7.65
2022-11-04T06:59:18.484Z,7.78
2022-11-04T07:02:40.702Z,4.60
2022-11-04T07:06:10.049Z,3.60
2022-11-04T07:09:32.140Z,2.30
2022-11-04T07:12:55.139Z,1.60
2022-11-04T07:16:18.991Z,2.13
2022-11-04T07:19:40.973Z,1.50
2022-11-04T07:23:03.162Z,1.00
2022-11-04T07:26:27.374Z,1.08
2022-11-04T07:29:49.372Z,0.93
2022-11-04T07:33:11.426Z,0.68
2022-11-04T07:36:33.814Z,0.52
2022-11-04T07:39:56.061Z,0.47
2022-11-04T07:43:18.159Z,0.60
2022-11-04T07:46:41.926Z,0.40
2022-11-04T07:50:09.559Z,0.40
2022-11-04T07:53:33.424Z,0.30
2022-11-04T07:56:55.385Z,0.68
2022-11-04T08:00:17.938Z,1.00
2022-11-04T08:03:40.148Z,0.60
2022-11-04T08:07:03.201Z,0.70
2022-11-04T08:10:26.497Z,0.50
2022-11-04T08:13:48.626Z,0.90
2022-11-04T08:17:10.687Z,1.02
2022-11-04T08:20:32.694Z,0.68
2022-11-04T08:23:54.949Z,0.50
2022-11-04T08:27:17.026Z,0.30
2022-11-04T08:30:39.803Z,0.20
2022-11-04T08:34:01.849Z,0.40
2022-11-04T08:37:23.933Z,0.20
2022-11-04T08:40:46.455Z,0.30
2022-11-04T08:44:09.326Z,0.30
2022-11-04T08:47:31.419Z,0.52
2022-11-04T08:50:56.738Z,0.20
2022-11-04T08:54:18.788Z,0.10
2022-11-04T08:57:41.076Z,0.30
2022-11-04T09:01:07.037Z,0.20
2022-11-04T09:04:29.133Z,0.20
2022-11-04T09:07:51.219Z,0.30
2022-11-04T09:11:14.726Z,0.10
2022-11-04T09:14:36.994Z,0.00
2022-11-04T09:17:58.983Z,0.10
2022-11-04T09:21:21.009Z,0.32
2022-11-04T09:24:44.593Z,0.10
2022-11-04T09:28:07.223Z,0.30
2022-11-04T09:31:30.829Z,0.30
2022-11-04T09:34:52.801Z,0.10
2022-11-04T09:38:14.932Z,0.20
2022-11-04T09:41:55.427Z,0.08
2022-11-04T09:45:22.122Z,0.00
2022-11-04T09:48:51.923Z,0.28
2022-11-04T09:52:29.683Z,0.30
2022-11-04T09:55:58.571Z,0.30
2022-11-04T09:59:28.801Z,0.15
2022-11-04T10:03:18.139Z,0.10
2022-11-04T10:07:37.277Z,0.25
2022-11-04T10:11:06.685Z,0.20
2022-11-04T10:15:29.880Z,0.03
2022-11-04T10:19:06.170Z,0.17
2022-11-04T10:22:52.880Z,0.25
2022-11-04T10:26:28.991Z,0.50
2022-11-04T10:29:56.028Z,0.43
2022-11-04T10:33:31.600Z,0.32
2022-11-04T10:36:56.048Z,0.30
2022-11-04T10:40:18.255Z,0.40
2022-11-04T10:43:41.439Z,0.43
2022-11-04T10:47:39.654Z,0.60
2022-11-04T10:51:02.005Z,0.68
2022-11-04T10:54:26.940Z,0.60
2022-11-04T10:57:49.272Z,0.32
2022-11-04T11:01:32.370Z,0.47
2022-11-04T11:05:12.379Z,0.50
2022-11-04T11:08:37.378Z,0.25
2022-11-04T11:12:02.615Z,0.32
2022-11-04T11:15:29.669Z,0.20
2022-11-04T11:19:17.737Z,0.10
2022-11-04T11:22:42.393Z,0.10
2022-11-04T11:26:08.466Z,0.10
2022-11-04T11:29:40.497Z,0.00
2022-11-04T11:33:08.343Z,0.03
2022-11-04T11:36:33.669Z,0.10
2022-11-04T11:39:55.684Z,0.00
2022-11-04T11:43:31.201Z,0.03
2022-11-04T11:46:56.608Z,0.17
2022-11-04T11:50:34.640Z,0.13
2022-11-04T11:54:33.789Z,0.10
2022-11-04T12:02:35.715Z,0.10
2022-11-04T12:06:24.269Z,0.00
2022-11-04T12:10:07.045Z,0.00
2022-11-04T12:13:37.278Z,0.00
2022-11-04T12:17:22.762Z,0.00
2022-11-04T12:21:02.160Z,0.00
2022-11-04T12:24:39.472Z,0.10
2022-11-04T12:28:14.037Z,0.00
2022-11-04T12:31:42.181Z,0.20
2022-11-04T12:35:23.002Z,0.22
2022-11-04T12:39:03.918Z,0.10
2022-11-04T12:46:06.774Z,0.10
2022-11-04T12:49:50.413Z,0.10
2022-11-04T12:53:15.265Z,0.10
2022-11-04T12:56:39.121Z,0.10
2022-11-04T13:00:08.408Z,0.05
2022-11-04T13:03:53.520Z,0.00
2022-11-04T13:07:37.391Z,0.00
2022-11-04T13:11:22.664Z,0.13
2022-11-04T13:15:03.221Z,0.20
2022-11-04T13:18:30.621Z,0.10
2022-11-04T13:21:55.090Z,0.20
2022-11-04T13:25:40.728Z,0.15
2022-11-04T13:29:12.534Z,0.10
2022-11-04T13:32:48.739Z,0.10
2022-11-04T13:36:16.367Z,0.20
2022-11-04T13:39:45.450Z,0.32
2022-11-04T13:43:46.882Z,0.10
2022-11-04T13:47:21.983Z,0.20
2022-11-04T13:50:44.340Z,0.22
2022-11-04T13:54:23.348Z,0.17
2022-11-04T13:57:56.521Z,0.20
2022-11-04T14:01:21.787Z,0.30
2022-11-04T14:04:45.308Z,0.20
2022-11-04T14:08:13.677Z,0.32
2022-11-04T14:12:10.824Z,0.10
2022-11-04T14:16:00.613Z,0.15
2022-11-04T14:19:48.792Z,0.10
2022-11-04T14:23:23.369Z,0.30
2022-11-04T14:26:48.509Z,0.10
2022-11-04T14:30:36.489Z,0.20
2022-11-04T14:33:58.736Z,0.10
2022-11-04T14:37:29.084Z,0.08
2022-11-04T14:44:21.476Z,0.00
2022-11-04T14:47:48.004Z,0.10
2022-11-04T14:51:24.877Z,0.00
2022-11-04T14:54:47.857Z,0.00
2022-11-04T14:58:27.218Z,0.28
2022-11-04T15:01:52.355Z,0.00
2022-11-04T15:05:27.547Z,0.05
2022-11-04T15:08:49.550Z,0.10
2022-11-04T15:12:30.349Z,0.17
2022-11-04T15:15:56.237Z,0.10
2022-11-04T15:19:35.499Z,0.00
2022-11-04T15:23:01.620Z,0.40
2022-11-04T15:26:30.771Z,0.43
2022-11-04T15:30:02.772Z,0.60
2022-11-04T15:33:26.118Z,0.70
2022-11-04T15:36:49.991Z,0.57
2022-11-04T15:40:14.809Z,1.38
2022-11-04T15:43:38.923Z,0.88
2022-11-04T15:47:20.007Z,0.40
2022-11-04T15:50:43.065Z,0.10
2022-11-04T15:54:16.498Z,0.10
2022-11-04T15:57:40.381Z,0.20
2022-11-04T16:01:02.603Z,0.38
2022-11-04T16:04:27.609Z,0.55
2022-11-04T16:07:52.452Z,0.32
2022-11-04T16:11:19.844Z,0.10
2022-11-04T16:19:23.363Z,0.00
2022-11-04T16:22:46.590Z,0.30
2022-11-04T16:26:08.753Z,0.15
2022-11-04T16:29:33.768Z,0.10
2022-11-04T16:33:10.468Z,0.10
2022-11-04T16:36:35.758Z,0.30
2022-11-04T16:39:58.346Z,0.20
2022-11-04T16:43:21.668Z,1.80
2022-11-04T16:46:45.450Z,1.42
2022-11-04T16:50:18.120Z,0.90
2022-11-04T16:53:40.228Z,1.38
2022-11-04T16:57:05.611Z,0.40
2022-11-04T17:00:32.051Z,0.40
2022-11-04T17:03:54.646Z,0.52
2022-11-04T17:07:18.881Z,0.20
2022-11-04T17:10:42.779Z,0.20
2022-11-04T17:14:05.013Z,0.30
2022-11-04T17:17:27.826Z,0.25
2022-11-04T17:20:55.397Z,0.38
2022-11-04T17:24:17.598Z,0.20
2022-11-04T17:27:41.199Z,0.10
2022-11-04T17:31:03.213Z,0.20
2022-11-04T17:34:26.019Z,0.10
2022-11-04T17:37:52.806Z,0.20
2022-11-04T17:41:33.622Z,0.50
2022-11-04T17:48:42.822Z,0.95
2022-11-04T17:52:05.150Z,0.85
2022-11-04T17:55:27.816Z,1.23
2022-11-04T17:58:50.834Z,0.25
2022-11-04T18:02:12.958Z,0.30
2022-11-04T18:05:35.107Z,0.40
2022-11-04T18:08:57.902Z,0.35
2022-11-04T18:12:38.070Z,0.60
2022-11-04T18:16:11.785Z,0.20
2022-11-04T18:19:33.952Z,0.30
2022-11-04T18:22:56.020Z,0.20
2022-11-04T18:26:19.046Z,0.15
2022-11-04T18:29:41.052Z,0.40
2022-11-04T18:33:03.165Z,0.57
2022-11-04T18:36:25.221Z,1.00
2022-11-04T18:39:47.259Z,0.68
2022-11-04T18:43:09.604Z,0.68
2022-11-04T18:46:31.602Z,0.50
2022-11-04T18:49:53.703Z,0.70
2022-11-04T18:53:22.787Z,0.40
2022-11-04T18:56:47.905Z,0.90
2022-11-04T19:00:16.711Z,0.43
2022-11-04T19:03:39.677Z,0.70
2022-11-04T19:07:02.083Z,0.98
2022-11-04T19:10:24.124Z,0.60
2022-11-04T19:13:54.796Z,1.50
2022-11-04T19:17:17.079Z,1.25
2022-11-04T19:20:39.092Z,1.90
2022-11-04T19:24:01.974Z,1.20
2022-11-04T19:27:25.137Z,1.50
2022-11-04T19:31:00.514Z,1.73
2022-11-04T19:34:22.653Z,3.10
2022-11-04T19:37:44.643Z,2.83
2022-11-04T19:41:31.127Z,3.25
2022-11-04T19:44:53.248Z,2.47
2022-11-04T19:48:17.540Z,1.88
2022-11-04T19:51:39.946Z,1.73
2022-11-04T19:55:02.090Z,1.52
2022-11-04T19:58:24.120Z,1.00
2022-11-04T20:01:46.272Z,1.88
2022-11-04T20:05:08.656Z,1.13
2022-11-04T20:08:31.186Z,1.35
2022-11-04T20:12:11.993Z,1.80
2022-11-04T20:19:00.690Z,1.25
2022-11-04T20:22:22.768Z,1.30
2022-11-04T20:25:45.376Z,1.23
2022-11-04T20:29:07.463Z,0.60
2022-11-04T20:32:29.423Z,0.57
2022-11-04T20:35:51.505Z,0.63
2022-11-04T20:39:15.969Z,0.70
2022-11-04T20:42:38.127Z,0.85
2022-11-04T20:46:09.562Z,0.55
2022-11-04T20:49:31.652Z,0.47
2022-11-04T20:52:53.826Z,0.57
2022-11-04T20:56:18.384Z,0.20
2022-11-04T20:59:40.401Z,0.40
2022-11-04T21:03:02.447Z,0.28
2022-11-04T21:06:24.610Z,0.30
2022-11-04T21:09:46.765Z,0.20
2022-11-04T21:13:08.687Z,0.17
2022-11-04T21:16:30.761Z,0.20
2022-11-04T21:19:53.389Z,0.30
2022-11-04T21:23:17.018Z,0.20
2022-11-04T21:26:39.051Z,0.30
2022-11-04T21:30:01.119Z,0.45
2022-11-04T21:33:23.309Z,0.30
2022-11-04T21:36:45.772Z,0.30
2022-11-04T21:40:08.488Z,0.10
2022-11-04T21:43:30.494Z,0.22
2022-11-04T21:46:53.289Z,0.20
2022-11-04T21:50:18.239Z,0.10
2022-11-04T21:53:41.074Z,0.00
2022-11-04T21:57:03.100Z,0.25
2022-11-04T22:00:25.126Z,0.10
2022-11-04T22:03:55.229Z,0.17
2022-11-04T22:07:37.182Z,0.00
2022-11-04T22:11:06.395Z,0.30
2022-11-04T22:14:29.714Z,0.17
2022-11-04T22:17:51.966Z,0.00
2022-11-04T22:21:16.518Z,0.10
2022-11-04T22:24:38.531Z,0.17
2022-11-04T22:28:00.548Z,0.30
2022-11-04T22:31:34.562Z,0.10
2022-11-04T22:34:56.548Z,0.20
2022-11-04T22:38:18.586Z,0.30
2022-11-04T22:41:40.706Z,0.10
2022-11-04T22:45:02.858Z,0.20
2022-11-04T22:48:25.002Z,0.15
2022-11-04T22:51:46.963Z,0.10
2022-11-04T22:55:10.668Z,0.10
2022-11-04T22:58:33.797Z,0.10
2022-11-04T23:01:56.217Z,0.00
2022-11-04T23:05:18.394Z,0.10
2022-11-04T23:08:42.518Z,0.10
2022-11-04T23:12:23.496Z,0.10
2022-11-04T23:16:04.170Z,0.10
2022-11-04T23:19:30.744Z,0.05
2022-11-04T23:23:11.854Z,0.10
2022-11-04T23:26:34.061Z,0.10
2022-11-04T23:30:14.443Z,0.00
2022-11-04T23:33:55.232Z,0.00
2022-11-04T23:40:39.415Z,0.00
2022-11-04T23:44:05.342Z,0.10
2022-11-04T23:47:46.078Z,0.00
2022-11-04T23:55:08.887Z,0.10
2022-11-04T23:58:49.626Z,0.00
